createdAt,value
2023-04-15T00:03:23.281Z,96971.00
2023-04-15T00:08:45.400Z,96967.00
2023-04-15T00:14:07.548Z,96968.00
2023-04-15T00:19:29.003Z,96965.00
2023-04-15T00:24:50.931Z,96955.00
2023-04-15T00:30:12.757Z,96951.00
2023-04-15T00:35:34.436Z,96962.00
2023-04-15T00:40:56.845Z,96956.00
2023-04-15T00:46:20.755Z,96945.00
2023-04-15T00:51:42.335Z,96949.00
2023-04-15T00:57:05.520Z,96930.00
2023-04-15T01:02:27.641Z,96941.00
2023-04-15T01:07:49.612Z,96932.00
2023-04-15T01:13:11.075Z,96938.00
2023-04-15T01:18:34.851Z,96929.00
2023-04-15T01:23:58.068Z,96931.00
2023-04-15T01:29:20.005Z,96914.00
2023-04-15T01:34:41.437Z,96919.00
2023-04-15T01:40:03.529Z,96909.00
2023-04-15T01:45:24.955Z,96895.00
2023-04-15T01:50:46.662Z,96889.00
2023-04-15T01:56:09.344Z,96884.00
2023-04-15T02:01:30.876Z,96884.00
2023-04-15T02:06:54.000Z,96883.00
2023-04-15T02:12:16.362Z,96874.00
2023-04-15T02:17:38.241Z,96865.00
2023-04-15T02:22:59.856Z,96865.00
2023-04-15T02:28:21.967Z,96861.00
2023-04-15T02:33:43.630Z,96859.00
2023-04-15T02:39:04.958Z,96852.00
2023-04-15T02:44:27.431Z,96858.00
2023-04-15T02:49:53.275Z,96853.00
2023-04-15T02:55:18.215Z,96861.00
2023-04-15T03:00:39.949Z,96876.00
2023-04-15T03:06:01.895Z,96869.00
2023-04-15T03:11:23.428Z,96875.00
2023-04-15T03:16:45.136Z,96876.00
2023-04-15T03:22:08.575Z,96868.00
2023-04-15T03:27:29.681Z,96864.00
2023-04-15T03:32:54.540Z,96856.00
2023-04-15T03:38:15.848Z,96863.00
2023-04-15T03:43:37.328Z,96848.00
2023-04-15T03:49:00.412Z,96850.00
2023-04-15T03:54:22.344Z,96843.00
2023-04-15T03:59:44.048Z,96855.00
2023-04-15T04:05:05.854Z,96847.00
2023-04-15T04:10:27.836Z,96851.00
2023-04-15T04:15:49.081Z,96853.00
2023-04-15T04:21:10.233Z,96847.00
2023-04-15T04:26:31.747Z,96847.00
2023-04-15T04:31:53.252Z,96856.00
2023-04-15T04:37:14.675Z,96858.00
2023-04-15T04:42:38.529Z,96871.00
2023-04-15T04:48:01.427Z,96863.00
2023-04-15T04:53:22.728Z,96862.00
2023-04-15T04:58:44.170Z,96868.00
2023-04-15T05:04:07.148Z,96854.00
2023-04-15T05:09:28.903Z,96846.00
2023-04-15T05:14:50.318Z,96848.00
2023-04-15T05:20:12.584Z,96850.00
2023-04-15T05:25:33.792Z,96848.00
2023-04-15T05:30:55.597Z,96847.00
2023-04-15T05:36:17.526Z,96868.00
2023-04-15T05:41:38.888Z,96884.00
2023-04-15T05:47:00.866Z,96863.00
2023-04-15T05:52:22.410Z,96859.00
2023-04-15T05:57:43.920Z,96873.00
2023-04-15T06:03:06.660Z,96863.00
2023-04-15T06:08:28.003Z,96893.00
2023-04-15T06:13:49.473Z,96891.00
2023-04-15T06:19:12.449Z,96881.00
2023-04-15T06:24:34.165Z,96896.00
2023-04-15T06:29:55.909Z,96897.00
2023-04-15T06:35:20.804Z,96894.00
2023-04-15T06:40:42.630Z,96895.00
2023-04-15T06:46:04.195Z,96890.00
2023-04-15T06:51:26.725Z,96890.00
2023-04-15T06:56:48.211Z,96902.00
2023-04-15T07:02:12.695Z,96911.00
2023-04-15T07:07:34.160Z,96908.00
2023-04-15T07:12:55.768Z,96907.00
2023-04-15T07:18:17.379Z,96912.00
2023-04-15T07:23:38.806Z,96904.00
2023-04-15T07:29:00.383Z,96906.00
2023-04-15T07:34:21.954Z,96918.00
2023-04-15T07:39:43.863Z,96926.00
2023-04-15T07:45:05.480Z,96927.00
2023-04-15T07:50:27.524Z,96940.00
2023-04-15T07:55:48.942Z,96937.00
2023-04-15T08:01:10.806Z,96943.00
2023-04-15T08:06:33.377Z,96933.00
2023-04-15T08:11:54.852Z,96937.00
2023-04-15T08:17:16.579Z,96932.00
2023-04-15T08:22:38.130Z,96935.00
2023-04-15T08:27:59.570Z,96940.00
2023-04-15T08:33:21.465Z,96957.00
2023-04-15T08:38:42.800Z,96955.00
2023-04-15T08:44:07.692Z,96957.00
2023-04-15T08:49:30.105Z,96967.00
2023-04-15T08:54:52.143Z,96965.00
2023-04-15T09:00:14.266Z,96976.00
2023-04-15T09:05:37.373Z,96974.00
2023-04-15T09:10:58.597Z,96966.00
2023-04-15T09:16:20.419Z,96969.00
2023-04-15T09:21:41.512Z,96978.00
2023-04-15T09:27:03.751Z,96975.00
2023-04-15T09:32:25.220Z,97001.00
2023-04-15T09:37:46.699Z,96999.00
2023-04-15T09:43:09.825Z,96992.00
2023-04-15T09:48:31.388Z,97012.00
2023-04-15T09:53:56.743Z,97009.00
2023-04-15T09:59:20.099Z,97008.00
2023-04-15T10:04:42.702Z,97016.00
2023-04-15T10:10:05.470Z,97020.00
2023-04-15T10:15:28.531Z,97017.00
2023-04-15T10:20:50.970Z,97027.00
2023-04-15T10:26:15.032Z,97018.00
2023-04-15T10:31:38.448Z,97031.00
2023-04-15T10:37:03.963Z,97025.00
2023-04-15T10:42:33.805Z,97042.00
2023-04-15T10:48:03.350Z,97049.00
2023-04-15T10:53:30.967Z,97046.00
2023-04-15T10:58:52.570Z,97051.00
2023-04-15T11:04:14.097Z,97050.00
2023-04-15T11:09:35.783Z,97058.00
2023-04-15T11:14:58.388Z,97058.00
2023-04-15T11:20:19.937Z,97059.00
2023-04-15T11:25:41.865Z,97069.00
2023-04-15T11:31:20.194Z,97076.00
2023-04-15T11:36:44.604Z,97072.00
2023-04-15T11:42:18.455Z,97079.00
2023-04-15T11:47:40.835Z,97088.00
2023-04-15T11:53:06.885Z,97110.00
2023-04-15T11:58:30.477Z,97101.00
2023-04-15T12:03:51.878Z,97109.00
2023-04-15T12:09:17.301Z,97113.00
2023-04-15T12:14:42.440Z,97114.00
2023-04-15T12:20:04.362Z,97130.00
2023-04-15T12:25:35.627Z,97130.00
2023-04-15T12:30:57.106Z,97130.00
2023-04-15T12:36:18.779Z,97126.00
2023-04-15T12:41:40.208Z,97139.00
2023-04-15T12:47:01.795Z,97143.00
2023-04-15T12:52:24.606Z,97155.00
2023-04-15T12:57:46.103Z,97147.00
2023-04-15T13:03:07.691Z,97166.00
2023-04-15T13:08:29.137Z,97172.00
2023-04-15T13:13:52.328Z,97175.00
2023-04-15T13:19:14.158Z,97184.00
2023-04-15T13:24:35.741Z,97191.00
2023-04-15T13:29:57.457Z,97203.00
2023-04-15T13:35:19.001Z,97210.00
2023-04-15T13:40:41.038Z,97205.00
2023-04-15T13:46:02.633Z,97216.00
2023-04-15T13:51:24.118Z,97226.00
2023-04-15T13:56:45.873Z,97234.00
2023-04-15T14:02:07.842Z,97227.00
2023-04-15T14:07:31.650Z,97227.00
2023-04-15T14:12:53.017Z,97236.00
2023-04-15T14:18:14.481Z,97239.00
2023-04-15T14:23:36.048Z,97245.00
2023-04-15T14:28:57.432Z,97255.00
2023-04-15T14:34:18.788Z,97257.00
2023-04-15T14:39:40.887Z,97264.00
2023-04-15T14:45:02.069Z,97272.00
2023-04-15T14:50:23.477Z,97278.00
2023-04-15T14:55:45.759Z,97279.00
2023-04-15T15:01:07.113Z,97298.00
2023-04-15T15:06:28.463Z,97296.00
2023-04-15T15:11:51.136Z,97296.00
2023-04-15T15:17:12.708Z,97298.00
2023-04-15T15:22:34.239Z,97314.00
2023-04-15T15:27:56.270Z,97322.00
2023-04-15T15:33:17.903Z,97333.00
2023-04-15T15:38:41.854Z,97340.00
2023-04-15T15:44:03.170Z,97339.00
2023-04-15T15:49:25.973Z,97341.00
2023-04-15T15:54:48.347Z,97353.00
2023-04-15T16:00:12.763Z,97348.00
2023-04-15T16:05:35.205Z,97355.00
2023-04-15T16:10:57.728Z,97358.00
2023-04-15T16:16:19.020Z,97379.00
2023-04-15T16:21:40.449Z,97380.00
2023-04-15T16:27:02.148Z,97387.00
2023-04-15T16:32:23.700Z,97391.00
2023-04-15T16:37:44.891Z,97402.00
2023-04-15T16:43:11.607Z,97402.00
2023-04-15T16:48:33.045Z,97410.00
2023-04-15T16:53:54.274Z,97410.00
2023-04-15T16:59:15.608Z,97408.00
2023-04-15T17:04:37.395Z,97428.00
2023-04-15T17:09:58.878Z,97430.00
2023-04-15T17:15:21.109Z,97436.00
2023-04-15T17:20:42.853Z,97452.00
2023-04-15T17:26:04.257Z,97463.00
2023-04-15T17:31:25.459Z,97460.00
2023-04-15T17:36:48.107Z,97476.00
2023-04-15T17:42:11.835Z,97481.00
2023-04-15T17:47:36.318Z,97491.00
2023-04-15T17:52:58.548Z,97495.00
2023-04-15T17:58:20.643Z,97500.00
2023-04-15T18:03:42.213Z,97519.00
2023-04-15T18:09:04.460Z,97526.00
2023-04-15T18:14:34.331Z,97523.00
2023-04-15T18:19:56.467Z,97533.00
2023-04-15T18:25:18.636Z,97547.00
2023-04-15T18:30:40.257Z,97550.00
2023-04-15T18:36:02.720Z,97561.00
2023-04-15T18:41:25.592Z,97564.00
2023-04-15T18:46:48.387Z,97566.00
2023-04-15T18:52:13.083Z,97571.00
2023-04-15T18:57:35.137Z,97584.00
2023-04-15T19:02:57.364Z,97585.00
2023-04-15T19:08:18.945Z,97581.00
2023-04-15T19:13:40.889Z,97592.00
2023-04-15T19:19:02.141Z,97602.00
2023-04-15T19:24:23.711Z,97605.00
2023-04-15T19:29:45.415Z,97614.00
2023-04-15T19:35:09.910Z,97617.00
2023-04-15T19:40:32.848Z,97615.00
2023-04-15T19:45:54.954Z,97623.00
2023-04-15T19:51:16.466Z,97626.00
2023-04-15T19:56:38.049Z,97638.00
2023-04-15T20:01:59.742Z,97643.00
2023-04-15T20:07:21.375Z,97645.00
2023-04-15T20:12:51.281Z,97644.00
2023-04-15T20:18:14.561Z,97644.00
2023-04-15T20:23:38.466Z,97655.00
2023-04-15T20:29:00.737Z,97656.00
2023-04-15T20:34:22.467Z,97658.00
2023-04-15T20:39:43.897Z,97667.00
2023-04-15T20:45:07.137Z,97664.00
2023-04-15T20:50:28.614Z,97677.00
2023-04-15T20:55:50.170Z,97676.00
2023-04-15T21:01:12.782Z,97677.00
2023-04-15T21:06:34.888Z,97681.00
2023-04-15T21:12:00.969Z,97684.00
2023-04-15T21:17:23.317Z,97687.00
2023-04-15T21:22:44.828Z,97696.00
2023-04-15T21:28:06.320Z,97705.00
2023-04-15T21:33:28.012Z,97707.00
2023-04-15T21:38:49.139Z,97714.00
2023-04-15T21:44:14.459Z,97715.00
2023-04-15T21:49:36.149Z,97715.00
2023-04-15T21:54:57.673Z,97721.00
2023-04-15T22:00:18.972Z,97719.00
2023-04-15T22:05:40.306Z,97735.00
2023-04-15T22:11:01.870Z,97739.00
2023-04-15T22:16:23.475Z,97743.00
2023-04-15T22:21:44.857Z,97745.00
2023-04-15T22:27:06.551Z,97748.00
2023-04-15T22:32:28.097Z,97772.00
2023-04-15T22:37:49.660Z,97771.00
2023-04-15T22:43:11.136Z,97780.00
2023-04-15T22:48:32.776Z,97777.00
2023-04-15T22:53:54.389Z,97776.00
2023-04-15T22:59:16.008Z,97787.00
2023-04-15T23:04:37.454Z,97784.00
2023-04-15T23:10:00.379Z,97787.00
2023-04-15T23:15:22.258Z,97786.00
2023-04-15T23:20:43.818Z,97791.00
2023-04-15T23:26:05.384Z,97800.00
2023-04-15T23:31:27.053Z,97802.00
2023-04-15T23:36:48.566Z,97808.00
2023-04-15T23:42:10.124Z,97798.00
2023-04-15T23:47:31.607Z,97807.00
2023-04-15T23:52:53.146Z,97803.00
2023-04-15T23:58:14.922Z,97803.00
